createdAt,value
2023-05-22T00:02:44.784Z,15.09
2023-05-22T00:07:48.008Z,14.97
2023-05-22T00:12:50.899Z,14.86
2023-05-22T00:17:53.979Z,14.76
2023-05-22T00:22:58.105Z,14.67
2023-05-22T00:28:00.863Z,14.55
2023-05-22T00:33:03.890Z,14.40
2023-05-22T00:38:06.841Z,14.18
2023-05-22T00:43:09.822Z,14.07
2023-05-22T00:48:13.965Z,13.98
2023-05-22T00:53:19.718Z,13.87
2023-05-22T00:58:26.387Z,13.79
2023-05-22T01:03:30.087Z,13.73
2023-05-22T01:08:33.076Z,13.62
2023-05-22T01:13:50.796Z,13.51
2023-05-22T01:19:06.162Z,13.41
2023-05-22T01:24:26.005Z,13.32
2023-05-22T01:29:36.363Z,13.20
2023-05-22T01:34:41.921Z,13.09
2023-05-22T01:39:46.360Z,13.01
2023-05-22T01:44:49.496Z,12.87
2023-05-22T01:49:53.330Z,12.75
2023-05-22T01:55:05.148Z,12.69
2023-05-22T02:00:10.216Z,12.70
2023-05-22T02:05:18.450Z,12.66
2023-05-22T02:10:22.219Z,12.64
2023-05-22T02:15:25.050Z,12.59
2023-05-22T02:20:27.878Z,12.52
2023-05-22T02:25:31.116Z,12.40
2023-05-22T02:30:35.630Z,12.22
2023-05-22T02:35:38.887Z,12.14
2023-05-22T02:40:41.868Z,12.13
2023-05-22T02:45:45.032Z,12.10
2023-05-22T02:50:50.713Z,11.98
2023-05-22T02:55:53.579Z,11.89
2023-05-22T03:00:56.355Z,11.82
2023-05-22T03:05:59.442Z,11.80
2023-05-22T03:11:03.188Z,11.82
2023-05-22T03:16:06.438Z,11.81
2023-05-22T03:21:09.246Z,11.82
2023-05-22T03:26:12.023Z,12.94
2023-05-22T03:31:15.533Z,16.07
2023-05-22T03:36:19.372Z,17.71
2023-05-22T03:41:22.523Z,17.61
2023-05-22T03:46:25.659Z,15.74
2023-05-22T03:51:28.820Z,14.67
2023-05-22T03:56:31.644Z,13.99
2023-05-22T04:01:34.829Z,13.56
2023-05-22T04:06:43.484Z,13.27
2023-05-22T04:11:46.553Z,13.10
2023-05-22T04:16:50.515Z,13.01
2023-05-22T04:21:54.944Z,12.98
2023-05-22T04:27:00.469Z,12.97
2023-05-22T04:32:03.560Z,13.01
2023-05-22T04:37:06.452Z,14.19
2023-05-22T04:42:09.554Z,17.44
2023-05-22T04:47:14.575Z,18.18
2023-05-22T04:52:17.602Z,16.64
2023-05-22T04:57:21.936Z,15.84
2023-05-22T05:02:25.187Z,15.45
2023-05-22T05:07:28.037Z,15.20
2023-05-22T05:12:31.019Z,15.05
2023-05-22T05:17:33.912Z,14.99
2023-05-22T05:22:37.518Z,15.00
2023-05-22T05:27:40.528Z,15.03
2023-05-22T05:32:43.296Z,15.11
2023-05-22T05:37:46.102Z,15.22
2023-05-22T05:42:48.901Z,15.35
2023-05-22T05:47:54.754Z,15.51
2023-05-22T05:52:57.614Z,15.70
2023-05-22T05:58:00.527Z,15.89
2023-05-22T06:03:03.381Z,16.10
2023-05-22T06:08:06.573Z,16.27
2023-05-22T06:13:13.486Z,16.47
2023-05-22T06:18:17.647Z,16.65
2023-05-22T06:23:22.911Z,16.85
2023-05-22T06:28:25.949Z,17.05
2023-05-22T06:33:34.113Z,17.26
2023-05-22T06:38:41.838Z,17.50
2023-05-22T06:43:53.899Z,17.73
2023-05-22T06:49:00.860Z,18.03
2023-05-22T06:54:06.988Z,18.41
2023-05-22T06:59:11.276Z,18.86
2023-05-22T07:04:15.760Z,19.26
2023-05-22T07:15:22.377Z,20.21
2023-05-22T07:20:26.436Z,20.61
2023-05-22T07:25:29.704Z,20.96
2023-05-22T07:30:32.500Z,21.23
2023-05-22T07:35:37.784Z,21.53
2023-05-22T07:40:54.149Z,21.79
2023-05-22T07:45:57.393Z,22.08
2023-05-22T07:51:00.867Z,22.35
2023-05-22T07:56:04.799Z,22.70
2023-05-22T08:01:11.388Z,23.04
2023-05-22T08:06:16.260Z,23.41
2023-05-22T08:11:19.167Z,23.71
2023-05-22T08:16:22.618Z,23.99
2023-05-22T08:21:25.856Z,24.21
2023-05-22T08:26:33.984Z,24.28
2023-05-22T08:31:36.975Z,24.56
2023-05-22T08:36:49.961Z,24.89
2023-05-22T08:41:57.499Z,25.18
2023-05-22T08:47:11.497Z,25.43
2023-05-22T08:52:23.250Z,25.62
2023-05-22T08:57:26.950Z,25.75
2023-05-22T09:02:31.907Z,25.96
2023-05-22T09:07:36.058Z,26.10
2023-05-22T09:13:06.689Z,26.28
2023-05-22T09:18:12.069Z,26.52
2023-05-22T09:23:18.479Z,26.72
2023-05-22T09:28:21.403Z,26.83
2023-05-22T09:33:25.235Z,26.96
2023-05-22T09:38:30.261Z,27.11
2023-05-22T09:43:34.572Z,27.21
2023-05-22T09:48:38.561Z,27.25
2023-05-22T09:53:44.622Z,27.46
2023-05-22T09:58:47.991Z,27.57
2023-05-22T10:03:54.575Z,27.70
2023-05-22T10:09:04.998Z,27.83
2023-05-22T10:14:12.701Z,28.08
2023-05-22T10:19:30.322Z,28.05
2023-05-22T10:24:35.832Z,27.77
2023-05-22T10:29:49.199Z,27.95
2023-05-22T10:35:19.048Z,28.20
2023-05-22T10:40:31.376Z,28.00
2023-05-22T10:45:34.722Z,27.51
2023-05-22T10:50:52.930Z,27.40
2023-05-22T10:55:57.782Z,27.69
2023-05-22T11:01:18.482Z,27.79
2023-05-22T11:06:43.643Z,27.99
2023-05-22T11:11:48.562Z,28.21
2023-05-22T11:17:00.253Z,28.50
2023-05-22T11:22:05.513Z,28.71
2023-05-22T11:27:10.161Z,28.86
2023-05-22T11:32:20.204Z,29.08
2023-05-22T11:37:24.183Z,29.22
2023-05-22T11:42:28.822Z,29.19
2023-05-22T11:47:31.941Z,28.99
2023-05-22T11:52:36.607Z,28.88
2023-05-22T11:57:39.569Z,29.01
2023-05-22T12:02:48.969Z,29.16
2023-05-22T12:07:52.258Z,29.39
2023-05-22T12:12:57.691Z,29.49
2023-05-22T12:18:00.683Z,29.29
2023-05-22T12:23:07.987Z,28.98
2023-05-22T12:28:21.651Z,28.99
2023-05-22T12:33:28.504Z,29.24
2023-05-22T12:38:34.070Z,29.48
2023-05-22T12:43:38.363Z,29.70
2023-05-22T12:48:41.153Z,29.93
2023-05-22T12:53:44.140Z,30.00
2023-05-22T12:58:46.924Z,29.89
2023-05-22T13:03:51.109Z,29.57
2023-05-22T13:08:53.962Z,29.26
2023-05-22T13:13:56.703Z,28.98
2023-05-22T13:18:59.509Z,28.75
2023-05-22T13:24:04.366Z,28.63
2023-05-22T13:29:07.430Z,28.45
2023-05-22T13:34:10.281Z,28.29
2023-05-22T13:39:13.399Z,28.38
2023-05-22T13:44:16.171Z,28.39
2023-05-22T13:49:18.959Z,28.21
2023-05-22T13:54:21.885Z,28.00
2023-05-22T13:59:24.764Z,28.04
2023-05-22T14:04:27.736Z,28.11
2023-05-22T14:09:31.328Z,28.20
2023-05-22T14:14:34.114Z,28.36
2023-05-22T14:19:40.910Z,28.40
2023-05-22T14:24:43.979Z,28.33
2023-05-22T14:29:47.787Z,28.07
2023-05-22T14:34:50.745Z,27.82
2023-05-22T14:39:53.597Z,27.68
2023-05-22T14:44:56.460Z,27.66
2023-05-22T14:50:10.180Z,27.67
2023-05-22T14:55:22.141Z,27.69
2023-05-22T15:00:28.766Z,27.75
2023-05-22T15:05:31.870Z,27.76
2023-05-22T15:10:36.581Z,27.88
2023-05-22T15:15:41.419Z,27.98
2023-05-22T15:20:44.410Z,27.88
2023-05-22T15:25:48.312Z,27.69
2023-05-22T15:30:51.182Z,27.59
2023-05-22T15:35:54.038Z,27.48
2023-05-22T15:40:56.799Z,27.38
2023-05-22T15:46:02.642Z,27.29
2023-05-22T15:51:06.870Z,27.21
2023-05-22T15:56:10.167Z,27.12
2023-05-22T16:01:13.584Z,27.04
2023-05-22T16:06:16.759Z,26.96
2023-05-22T16:11:19.655Z,26.88
2023-05-22T16:16:22.759Z,26.77
2023-05-22T16:21:26.017Z,26.65
2023-05-22T16:26:28.950Z,26.51
2023-05-22T16:31:36.145Z,26.38
2023-05-22T16:36:39.139Z,26.25
2023-05-22T16:41:43.791Z,26.08
2023-05-22T16:46:46.751Z,25.89
2023-05-22T16:51:49.661Z,25.72
2023-05-22T16:56:52.503Z,25.61
2023-05-22T17:01:55.280Z,25.51
2023-05-22T17:06:58.198Z,25.41
2023-05-22T17:12:04.970Z,25.28
2023-05-22T17:17:07.859Z,25.14
2023-05-22T17:22:10.695Z,25.01
2023-05-22T17:27:20.753Z,24.87
2023-05-22T17:32:35.783Z,24.72
2023-05-22T17:37:38.711Z,24.58
2023-05-22T17:42:43.889Z,24.42
2023-05-22T17:47:47.744Z,24.27
2023-05-22T17:52:50.657Z,24.12
2023-05-22T17:57:53.915Z,23.96
2023-05-22T18:02:56.915Z,23.81
2023-05-22T18:08:00.387Z,23.64
2023-05-22T18:13:03.266Z,23.47
2023-05-22T18:18:06.373Z,23.29
2023-05-22T18:23:09.830Z,23.06
2023-05-22T18:28:12.646Z,22.87
2023-05-22T18:33:16.231Z,22.71
2023-05-22T18:38:19.088Z,22.56
2023-05-22T18:43:27.792Z,22.40
2023-05-22T18:48:31.113Z,22.27
2023-05-22T18:53:34.519Z,22.13
2023-05-22T18:58:42.213Z,21.96
2023-05-22T19:03:45.082Z,21.77
2023-05-22T19:08:49.059Z,21.61
2023-05-22T19:13:53.437Z,21.43
2023-05-22T19:18:56.546Z,21.28
2023-05-22T19:23:59.357Z,21.16
2023-05-22T19:29:02.351Z,21.02
2023-05-22T19:34:05.621Z,20.86
2023-05-22T19:39:08.435Z,20.66
2023-05-22T19:44:11.436Z,20.50
2023-05-22T19:49:14.201Z,20.38
2023-05-22T19:54:17.185Z,20.25
2023-05-22T19:59:20.024Z,20.10
2023-05-22T20:04:23.239Z,19.99
2023-05-22T20:09:27.027Z,19.88
2023-05-22T20:14:29.818Z,19.75
2023-05-22T20:19:34.988Z,19.67
2023-05-22T20:24:37.852Z,19.56
2023-05-22T20:29:40.838Z,19.46
2023-05-22T20:34:45.266Z,19.35
2023-05-22T20:39:48.105Z,19.25
2023-05-22T20:44:55.053Z,19.15
2023-05-22T20:49:57.909Z,19.06
2023-05-22T20:55:00.707Z,18.99
2023-05-22T21:00:06.017Z,18.90
2023-05-22T21:05:09.560Z,18.79
2023-05-22T21:10:12.403Z,18.72
2023-05-22T21:15:15.380Z,18.63
2023-05-22T21:20:18.333Z,18.54
2023-05-22T21:25:21.530Z,18.44
2023-05-22T21:30:24.362Z,18.32
2023-05-22T21:35:27.115Z,18.24
2023-05-22T21:40:29.887Z,18.14
2023-05-22T21:45:32.660Z,18.03
2023-05-22T21:50:35.460Z,17.92
2023-05-22T21:55:38.213Z,17.84
2023-05-22T22:00:41.328Z,17.75
2023-05-22T22:05:44.447Z,17.68
2023-05-22T22:10:47.247Z,17.60
2023-05-22T22:15:50.784Z,17.51
2023-05-22T22:20:55.331Z,17.41
2023-05-22T22:25:58.162Z,17.31
2023-05-22T22:31:01.568Z,17.21
2023-05-22T22:36:04.678Z,17.09
2023-05-22T22:41:11.468Z,16.98
2023-05-22T22:46:14.328Z,16.87
2023-05-22T22:51:17.264Z,16.73
2023-05-22T22:56:20.115Z,16.57
2023-05-22T23:01:23.478Z,16.47
2023-05-22T23:06:29.705Z,16.41
2023-05-22T23:11:37.715Z,16.36
2023-05-22T23:16:41.280Z,16.31
2023-05-22T23:21:44.978Z,16.26
2023-05-22T23:26:47.857Z,16.20
2023-05-22T23:31:50.856Z,16.12
2023-05-22T23:36:53.827Z,16.06
2023-05-22T23:41:56.658Z,16.01
2023-05-22T23:46:59.589Z,15.92
2023-05-22T23:52:02.624Z,15.84
2023-05-22T23:57:07.070Z,15.72
